createdAt,value
2018-01-28T00:00:30.145Z,6.10
2018-01-28T00:01:30.091Z,6.06
2018-01-28T00:02:30.060Z,6.12
2018-01-28T00:03:30.040Z,6.06
2018-01-28T00:04:30.018Z,6.09
2018-01-28T00:05:30.009Z,6.06
2018-01-28T00:06:29.976Z,6.07
2018-01-28T00:07:29.954Z,6.02
2018-01-28T00:08:29.929Z,6.09
2018-01-28T00:09:29.920Z,6.12
2018-01-28T00:10:29.883Z,6.10
2018-01-28T00:11:29.863Z,6.05
2018-01-28T00:12:29.851Z,6.01
2018-01-28T00:13:29.818Z,5.99
2018-01-28T00:14:29.808Z,5.99
2018-01-28T00:15:29.784Z,6.05
2018-01-28T00:16:29.747Z,6.07
2018-01-28T00:17:29.731Z,6.06
2018-01-28T00:18:29.708Z,5.94
2018-01-28T00:19:29.708Z,6.05
2018-01-28T00:20:29.652Z,6.07
2018-01-28T00:21:29.634Z,6.06
2018-01-28T00:22:29.622Z,6.07
2018-01-28T00:23:29.587Z,5.98
2018-01-28T00:24:29.567Z,6.09
2018-01-28T00:25:29.567Z,5.97
2018-01-28T00:26:29.515Z,6.01
2018-01-28T00:27:29.496Z,6.13
2018-01-28T00:28:29.477Z,5.99
2018-01-28T00:29:29.470Z,6.02
2018-01-28T00:30:29.432Z,6.10
2018-01-28T00:31:29.416Z,6.06
2018-01-28T00:32:29.389Z,6.05
2018-01-28T00:33:29.415Z,6.09
2018-01-28T00:34:29.339Z,6.09
2018-01-28T00:35:29.318Z,6.09
2018-01-28T00:36:29.296Z,6.01
2018-01-28T00:37:29.281Z,6.02
2018-01-28T00:38:29.252Z,6.06
2018-01-28T00:39:29.223Z,6.09
2018-01-28T00:40:29.203Z,6.25
2018-01-28T00:41:29.185Z,6.28
2018-01-28T00:42:29.163Z,6.31
2018-01-28T00:43:29.154Z,6.17
2018-01-28T00:44:29.114Z,6.07
2018-01-28T00:45:29.095Z,6.07
2018-01-28T00:46:29.085Z,6.10
2018-01-28T00:47:29.050Z,6.17
2018-01-28T00:48:29.023Z,6.13
2018-01-28T00:49:29.006Z,6.13
2018-01-28T00:50:28.983Z,6.10
2018-01-28T00:51:28.956Z,6.13
2018-01-28T00:52:28.961Z,6.06
2018-01-28T00:53:28.914Z,6.07
2018-01-28T00:54:28.890Z,6.09
2018-01-28T00:55:28.940Z,6.15
2018-01-28T00:56:28.852Z,6.05
2018-01-28T00:57:28.822Z,6.13
2018-01-28T00:58:28.906Z,6.06
2018-01-28T00:59:28.787Z,6.17
2018-01-28T01:00:28.753Z,6.19
2018-01-28T01:01:28.733Z,6.15
2018-01-28T01:02:28.714Z,6.12
2018-01-28T01:03:28.686Z,6.09
2018-01-28T01:04:28.672Z,6.13
2018-01-28T01:05:28.651Z,6.15
2018-01-28T01:06:28.618Z,6.10
2018-01-28T01:07:28.617Z,6.09
2018-01-28T01:08:28.581Z,6.17
2018-01-28T01:09:28.554Z,6.22
2018-01-28T01:10:28.541Z,6.22
2018-01-28T01:11:28.514Z,6.13
2018-01-28T01:12:28.481Z,6.25
2018-01-28T01:13:28.460Z,6.13
2018-01-28T01:14:28.440Z,6.25
2018-01-28T01:15:28.412Z,6.29
2018-01-28T01:16:28.391Z,6.25
2018-01-28T01:17:28.384Z,6.19
2018-01-28T01:18:28.357Z,6.22
2018-01-28T01:19:28.326Z,6.31
2018-01-28T01:20:28.302Z,6.29
2018-01-28T01:21:28.287Z,6.28
2018-01-28T01:22:28.264Z,6.34
2018-01-28T01:23:28.241Z,6.35
2018-01-28T01:24:28.237Z,6.32
2018-01-28T01:25:28.208Z,6.31
2018-01-28T01:26:28.175Z,6.26
2018-01-28T01:27:28.150Z,6.26
2018-01-28T01:28:28.157Z,6.35
2018-01-28T01:29:28.098Z,6.38
2018-01-28T01:30:28.084Z,6.31
2018-01-28T01:31:28.059Z,6.31
2018-01-28T01:32:28.030Z,6.32
2018-01-28T01:33:28.010Z,6.29
2018-01-28T01:34:27.986Z,6.34
2018-01-28T01:35:27.964Z,6.28
2018-01-28T01:36:27.942Z,6.26
2018-01-28T01:37:27.929Z,6.28
2018-01-28T01:38:27.900Z,6.34
2018-01-28T01:39:27.877Z,6.32
2018-01-28T01:40:27.859Z,6.31
2018-01-28T01:41:27.830Z,6.32
2018-01-28T01:42:27.806Z,6.35
2018-01-28T01:43:27.792Z,6.41
2018-01-28T01:44:27.760Z,6.39
2018-01-28T01:45:27.738Z,6.34
2018-01-28T01:46:27.715Z,6.32
2018-01-28T01:47:27.732Z,6.38
2018-01-28T01:48:27.671Z,6.34
2018-01-28T01:49:27.650Z,6.29
2018-01-28T01:50:27.659Z,6.32
2018-01-28T01:51:27.605Z,6.34
2018-01-28T01:52:27.584Z,6.38
2018-01-28T01:53:27.610Z,6.46
2018-01-28T01:54:27.534Z,6.46
2018-01-28T01:55:27.524Z,6.43
2018-01-28T01:56:27.494Z,6.44
2018-01-28T01:57:27.477Z,6.46
2018-01-28T01:58:27.456Z,6.49
2018-01-28T01:59:27.426Z,6.47
2018-01-28T02:00:27.403Z,6.44
2018-01-28T02:01:27.385Z,6.53
2018-01-28T02:02:27.367Z,6.52
2018-01-28T02:03:27.336Z,6.50
2018-01-28T02:04:27.315Z,6.41
2018-01-28T02:05:27.293Z,6.43
2018-01-28T02:06:27.278Z,6.50
2018-01-28T02:07:27.246Z,6.46
2018-01-28T02:08:27.233Z,6.46
2018-01-28T02:09:27.203Z,6.49
2018-01-28T02:10:27.179Z,6.43
2018-01-28T02:11:27.157Z,6.54
2018-01-28T02:12:27.136Z,6.52
2018-01-28T02:13:27.113Z,6.41
2018-01-28T02:14:27.087Z,6.41
2018-01-28T02:15:27.066Z,6.47
2018-01-28T02:16:27.045Z,6.47
2018-01-28T02:17:27.035Z,6.41
2018-01-28T02:18:27.002Z,6.44
2018-01-28T02:19:26.977Z,6.50
2018-01-28T02:20:26.971Z,6.52
2018-01-28T02:21:26.941Z,6.62
2018-01-28T02:22:26.910Z,6.54
2018-01-28T02:23:26.915Z,6.60
2018-01-28T02:24:26.868Z,6.68
2018-01-28T02:25:26.854Z,6.65
2018-01-28T02:26:26.824Z,6.64
2018-01-28T02:27:26.801Z,6.65
2018-01-28T02:28:26.784Z,6.57
2018-01-28T02:29:26.756Z,6.54
2018-01-28T02:30:26.732Z,6.64
2018-01-28T02:31:26.729Z,6.62
2018-01-28T02:32:26.690Z,6.68
2018-01-28T02:33:26.666Z,6.62
2018-01-28T02:34:26.647Z,6.77
2018-01-28T02:35:26.619Z,6.70
2018-01-28T02:36:26.600Z,6.65
2018-01-28T02:37:26.574Z,6.67
2018-01-28T02:38:26.563Z,6.67
2018-01-28T02:39:26.531Z,6.68
2018-01-28T02:40:26.509Z,6.56
2018-01-28T02:41:26.493Z,6.72
2018-01-28T02:42:26.463Z,6.53
2018-01-28T02:43:26.440Z,6.62
2018-01-28T02:44:26.420Z,6.68
2018-01-28T02:45:26.411Z,6.74
2018-01-28T02:46:26.377Z,6.67
2018-01-28T02:47:26.353Z,6.64
2018-01-28T02:48:26.348Z,6.70
2018-01-28T02:49:26.311Z,6.68
2018-01-28T02:50:26.295Z,6.68
2018-01-28T02:51:26.278Z,6.68
2018-01-28T02:52:26.244Z,6.71
2018-01-28T02:53:26.219Z,6.68
2018-01-28T02:54:26.197Z,6.67
2018-01-28T02:55:26.174Z,6.70
2018-01-28T02:56:26.157Z,6.67
2018-01-28T02:57:26.130Z,6.65
2018-01-28T02:58:26.106Z,6.60
2018-01-28T02:59:26.139Z,6.67
2018-01-28T03:00:26.061Z,6.62
2018-01-28T03:01:26.041Z,6.74
2018-01-28T03:02:26.016Z,6.75
2018-01-28T03:03:25.996Z,6.75
2018-01-28T03:04:25.979Z,6.80
2018-01-28T03:05:25.959Z,6.71
2018-01-28T03:06:25.931Z,6.77
2018-01-28T03:07:25.909Z,6.74
2018-01-28T03:08:25.885Z,6.83
2018-01-28T03:09:25.864Z,6.82
2018-01-28T03:10:25.840Z,6.72
2018-01-28T03:11:25.816Z,6.72
2018-01-28T03:12:25.795Z,6.75
2018-01-28T03:13:25.775Z,6.75
2018-01-28T03:14:25.749Z,6.74
2018-01-28T03:15:25.730Z,6.75
2018-01-28T03:16:25.710Z,6.74
2018-01-28T03:17:25.687Z,6.71
2018-01-28T03:18:25.822Z,6.78
2018-01-28T03:19:25.640Z,6.72
2018-01-28T03:20:25.625Z,6.89
2018-01-28T03:21:25.661Z,6.86
2018-01-28T03:22:25.573Z,6.86
2018-01-28T03:23:25.552Z,6.97
2018-01-28T03:24:25.533Z,6.95
2018-01-28T03:25:25.509Z,6.93
2018-01-28T03:26:25.490Z,6.95
2018-01-28T03:27:25.462Z,6.95
2018-01-28T03:28:25.441Z,6.97
2018-01-28T03:29:25.417Z,6.95
2018-01-28T03:30:25.394Z,6.92
2018-01-28T03:31:25.374Z,7.00
2018-01-28T03:32:25.355Z,6.92
2018-01-28T03:33:25.340Z,7.03
2018-01-28T03:34:25.310Z,7.00
2018-01-28T03:35:25.285Z,6.93
2018-01-28T03:36:25.263Z,7.01
2018-01-28T03:37:25.250Z,7.01
2018-01-28T03:38:25.215Z,7.00
2018-01-28T03:39:25.196Z,6.95
2018-01-28T03:40:25.187Z,7.04
2018-01-28T03:41:25.153Z,7.00
2018-01-28T03:42:25.130Z,6.96
2018-01-28T03:43:25.180Z,7.04
2018-01-28T03:44:25.085Z,6.96
2018-01-28T03:45:25.066Z,7.13
2018-01-28T03:46:25.045Z,7.18
2018-01-28T03:47:25.027Z,7.18
2018-01-28T03:48:25.118Z,7.11
2018-01-28T03:49:24.981Z,7.18
2018-01-28T03:50:24.955Z,7.18
2018-01-28T03:51:25.016Z,7.14
2018-01-28T03:52:24.910Z,7.10
2018-01-28T03:53:24.898Z,7.10
2018-01-28T03:54:24.876Z,7.15
2018-01-28T03:55:24.845Z,7.18
2018-01-28T03:56:24.824Z,7.08
2018-01-28T03:57:24.801Z,7.08
2018-01-28T03:58:24.778Z,7.13
2018-01-28T03:59:24.759Z,7.19
2018-01-28T04:00:24.736Z,7.11
2018-01-28T04:01:24.722Z,7.21
2018-01-28T04:02:24.690Z,7.15
2018-01-28T04:03:24.671Z,7.21
2018-01-28T04:04:24.648Z,7.18
2018-01-28T04:05:24.628Z,7.19
2018-01-28T04:06:24.611Z,7.31
2018-01-28T04:07:24.580Z,7.31
2018-01-28T04:08:24.560Z,7.25
2018-01-28T04:09:24.536Z,7.33
2018-01-28T04:10:24.518Z,7.32
2018-01-28T04:11:24.497Z,7.29
2018-01-28T04:12:24.471Z,7.23
2018-01-28T04:13:24.592Z,7.29
2018-01-28T04:14:24.437Z,7.40
2018-01-28T04:15:24.407Z,7.41
2018-01-28T04:16:24.488Z,7.40
2018-01-28T04:17:24.366Z,7.32
2018-01-28T04:18:24.341Z,7.47
2018-01-28T04:19:24.326Z,7.39
2018-01-28T04:20:24.298Z,7.44
2018-01-28T04:21:24.275Z,7.41
2018-01-28T04:22:24.256Z,7.44
2018-01-28T04:23:24.230Z,7.44
2018-01-28T04:24:24.210Z,7.47
2018-01-28T04:25:24.186Z,7.48
2018-01-28T04:26:24.168Z,7.47
2018-01-28T04:27:24.144Z,7.47
2018-01-28T04:28:24.124Z,7.48
2018-01-28T04:29:24.104Z,7.48
2018-01-28T04:30:24.079Z,7.46
2018-01-28T04:31:24.059Z,7.61
2018-01-28T04:32:24.035Z,7.64
2018-01-28T04:33:24.025Z,7.50
2018-01-28T04:34:23.994Z,7.51
2018-01-28T04:35:23.968Z,7.56
2018-01-28T04:36:23.975Z,7.64
2018-01-28T04:37:23.925Z,7.59
2018-01-28T04:38:23.903Z,7.56
2018-01-28T04:39:23.885Z,7.64
2018-01-28T04:40:23.863Z,7.51
2018-01-28T04:41:23.843Z,7.67
2018-01-28T04:42:23.815Z,7.64
2018-01-28T04:43:23.808Z,7.58
2018-01-28T04:44:23.773Z,7.61
2018-01-28T04:45:23.751Z,7.59
2018-01-28T04:46:23.799Z,7.61
2018-01-28T04:47:23.711Z,7.66
2018-01-28T04:48:23.684Z,7.62
2018-01-28T04:49:23.671Z,7.62
2018-01-28T04:50:23.643Z,7.59
2018-01-28T04:51:23.620Z,7.62
2018-01-28T04:52:23.606Z,7.67
2018-01-28T04:53:23.584Z,7.70
2018-01-28T04:54:23.554Z,7.62
2018-01-28T04:55:23.534Z,7.66
2018-01-28T04:56:23.512Z,7.66
2018-01-28T04:57:23.491Z,7.61
2018-01-28T04:58:23.465Z,7.59
2018-01-28T04:59:23.446Z,7.59
2018-01-28T05:00:23.423Z,7.59
2018-01-28T05:01:23.413Z,7.61
2018-01-28T05:02:23.380Z,7.53
2018-01-28T05:03:23.361Z,7.61
2018-01-28T05:04:23.340Z,7.66
2018-01-28T05:05:23.315Z,7.69
2018-01-28T05:06:23.303Z,7.62
2018-01-28T05:07:23.274Z,7.62
2018-01-28T05:08:23.348Z,7.69
2018-01-28T05:09:23.229Z,7.66
2018-01-28T05:10:23.209Z,7.61
2018-01-28T05:11:23.225Z,7.64
2018-01-28T05:12:23.163Z,7.61
2018-01-28T05:13:23.142Z,7.61
2018-01-28T05:14:23.125Z,7.64
2018-01-28T05:15:23.109Z,7.58
2018-01-28T05:16:23.079Z,7.62
2018-01-28T05:17:23.059Z,7.64
2018-01-28T05:18:23.033Z,7.61
2018-01-28T05:19:23.011Z,7.61
2018-01-28T05:20:22.990Z,7.59
2018-01-28T05:21:22.967Z,7.61
2018-01-28T05:22:22.949Z,7.61
2018-01-28T05:23:22.927Z,7.59
2018-01-28T05:24:22.902Z,7.62
2018-01-28T05:25:22.887Z,7.67
2018-01-28T05:26:22.858Z,7.69
2018-01-28T05:27:22.838Z,7.64
2018-01-28T05:28:22.816Z,7.64
2018-01-28T05:29:22.796Z,7.66
2018-01-28T05:30:22.772Z,7.70
2018-01-28T05:31:22.751Z,7.70
2018-01-28T05:32:22.730Z,7.64
2018-01-28T05:33:22.710Z,7.62
2018-01-28T05:34:22.695Z,7.70
2018-01-28T05:35:22.666Z,7.64
2018-01-28T05:36:22.646Z,7.75
2018-01-28T05:37:22.623Z,7.74
2018-01-28T05:38:22.693Z,7.74
2018-01-28T05:39:22.580Z,7.70
2018-01-28T05:40:22.558Z,7.75
2018-01-28T05:41:22.586Z,7.62
2018-01-28T05:42:22.528Z,7.72
2018-01-28T05:43:22.498Z,7.69
2018-01-28T05:44:22.475Z,7.74
2018-01-28T05:45:22.450Z,7.64
2018-01-28T05:46:22.439Z,7.66
2018-01-28T05:47:22.406Z,7.69
2018-01-28T05:48:22.384Z,7.74
2018-01-28T05:49:22.364Z,7.64
2018-01-28T05:50:22.345Z,7.72
2018-01-28T05:51:22.319Z,7.69
2018-01-28T05:52:22.299Z,7.80
2018-01-28T05:53:22.276Z,7.77
2018-01-28T05:54:22.255Z,7.70
2018-01-28T05:55:22.235Z,7.77
2018-01-28T05:56:22.213Z,7.72
2018-01-28T05:57:22.191Z,7.69
2018-01-28T05:58:22.173Z,7.67
2018-01-28T05:59:22.148Z,7.77
2018-01-28T06:00:22.148Z,7.69
2018-01-28T06:01:22.105Z,7.69
2018-01-28T06:02:22.083Z,7.75
2018-01-28T06:03:22.173Z,7.74
2018-01-28T06:04:22.042Z,7.70
2018-01-28T06:05:22.019Z,7.74
2018-01-28T06:06:22.004Z,7.75
2018-01-28T06:07:21.974Z,7.78
2018-01-28T06:08:21.963Z,7.78
2018-01-28T06:09:21.934Z,7.75
2018-01-28T06:10:21.912Z,7.78
2018-01-28T06:11:21.925Z,7.74
2018-01-28T06:12:21.867Z,7.77
2018-01-28T06:13:21.847Z,7.74
2018-01-28T06:14:21.835Z,7.77
2018-01-28T06:15:21.803Z,7.83
2018-01-28T06:16:21.790Z,7.77
2018-01-28T06:17:21.819Z,7.84
2018-01-28T06:18:21.744Z,7.87
2018-01-28T06:19:21.719Z,7.78
2018-01-28T06:20:21.703Z,7.78
2018-01-28T06:21:21.674Z,7.77
2018-01-28T06:22:21.652Z,7.77
2018-01-28T06:23:21.632Z,7.81
2018-01-28T06:24:21.608Z,7.83
2018-01-28T06:25:21.590Z,7.90
2018-01-28T06:26:21.566Z,7.72
2018-01-28T06:27:21.544Z,7.84
2018-01-28T06:28:21.523Z,7.78
2018-01-28T06:29:21.504Z,7.85
2018-01-28T06:30:21.482Z,7.88
2018-01-28T06:31:21.462Z,7.93
2018-01-28T06:32:21.436Z,7.83
2018-01-28T06:33:21.489Z,7.90
2018-01-28T06:34:21.398Z,7.96
2018-01-28T06:35:21.373Z,7.83
2018-01-28T06:36:21.364Z,7.87
2018-01-28T06:37:21.333Z,7.88
2018-01-28T06:38:21.311Z,7.90
2018-01-28T06:39:21.289Z,7.81
2018-01-28T06:40:21.278Z,7.90
2018-01-28T06:41:21.247Z,7.88
2018-01-28T06:42:21.228Z,7.95
2018-01-28T06:43:21.206Z,7.87
2018-01-28T06:44:21.183Z,7.93
2018-01-28T06:45:21.163Z,7.90
2018-01-28T06:46:21.138Z,7.88
2018-01-28T06:47:21.118Z,7.90
2018-01-28T06:48:21.097Z,7.93
2018-01-28T06:49:21.078Z,7.85
2018-01-28T06:50:21.056Z,7.90
2018-01-28T06:51:21.031Z,7.93
2018-01-28T06:52:21.016Z,7.90
2018-01-28T06:53:20.990Z,7.95
2018-01-28T06:54:20.968Z,7.93
2018-01-28T06:55:20.961Z,7.99
2018-01-28T06:56:20.925Z,7.84
2018-01-28T06:57:20.911Z,7.95
2018-01-28T06:58:20.985Z,7.91
2018-01-28T06:59:20.865Z,7.88
2018-01-28T07:00:20.839Z,7.96
2018-01-28T07:01:20.821Z,8.02
2018-01-28T07:02:20.802Z,7.85
2018-01-28T07:03:20.790Z,8.03
2018-01-28T07:04:20.761Z,7.99
2018-01-28T07:05:20.738Z,7.98
2018-01-28T07:06:20.824Z,8.01
2018-01-28T07:07:20.689Z,7.96
2018-01-28T07:08:20.668Z,8.01
2018-01-28T07:09:20.706Z,8.02
2018-01-28T07:10:20.625Z,8.09
2018-01-28T07:11:20.602Z,8.03
2018-01-28T07:12:20.592Z,7.95
2018-01-28T07:13:20.565Z,8.02
2018-01-28T07:14:20.541Z,8.03
2018-01-28T07:15:20.528Z,8.08
2018-01-28T07:16:20.497Z,8.01
2018-01-28T07:17:20.474Z,8.13
2018-01-28T07:18:20.458Z,8.09
2018-01-28T07:19:20.432Z,8.14
2018-01-28T07:20:20.413Z,8.13
2018-01-28T07:21:20.399Z,8.16
2018-01-28T07:22:20.367Z,8.11
2018-01-28T07:23:20.346Z,8.13
2018-01-28T07:24:20.333Z,8.11
2018-01-28T07:25:20.306Z,8.13
2018-01-28T07:26:20.282Z,8.05
2018-01-28T07:27:20.260Z,8.14
2018-01-28T07:28:20.324Z,8.09
2018-01-28T07:29:20.222Z,8.16
2018-01-28T07:30:20.196Z,8.18
2018-01-28T07:31:20.194Z,8.18
2018-01-28T07:32:20.157Z,8.17
2018-01-28T07:33:20.132Z,8.23
2018-01-28T07:34:20.115Z,8.27
2018-01-28T07:35:20.092Z,8.21
2018-01-28T07:36:20.119Z,8.18
2018-01-28T07:37:20.051Z,8.20
2018-01-28T07:38:20.026Z,8.27
2018-01-28T07:39:20.010Z,8.24
2018-01-28T07:40:19.994Z,8.23
2018-01-28T07:41:19.965Z,8.26
2018-01-28T07:42:19.941Z,8.26
2018-01-28T07:43:19.921Z,8.26
2018-01-28T07:44:19.899Z,8.31
2018-01-28T07:45:19.878Z,8.28
2018-01-28T07:46:19.867Z,8.45
2018-01-28T07:47:19.838Z,8.35
2018-01-28T07:48:19.823Z,8.45
2018-01-28T07:49:19.793Z,8.49
2018-01-28T07:50:19.770Z,8.46
2018-01-28T07:51:19.750Z,8.44
2018-01-28T07:52:19.738Z,8.46
2018-01-28T07:53:19.718Z,8.49
2018-01-28T07:54:19.688Z,8.39
2018-01-28T07:55:19.668Z,8.38
2018-01-28T07:56:19.657Z,8.42
2018-01-28T07:57:19.627Z,8.46
2018-01-28T07:58:19.798Z,8.45
2018-01-28T07:59:19.580Z,8.53
2018-01-28T08:00:19.563Z,8.49
2018-01-28T08:01:19.545Z,8.57
2018-01-28T08:02:19.519Z,8.52
2018-01-28T08:03:19.500Z,8.56
2018-01-28T08:04:19.479Z,8.52
2018-01-28T08:05:19.458Z,8.59
2018-01-28T08:06:19.443Z,8.61
2018-01-28T08:07:19.422Z,8.61
2018-01-28T08:08:19.395Z,8.63
2018-01-28T08:09:19.375Z,8.63
2018-01-28T08:10:19.354Z,8.52
2018-01-28T08:11:19.334Z,8.56
2018-01-28T08:12:19.309Z,8.66
2018-01-28T08:13:19.292Z,8.60
2018-01-28T08:14:19.267Z,8.66
2018-01-28T08:15:19.254Z,8.61
2018-01-28T08:16:19.229Z,8.69
2018-01-28T08:17:19.213Z,8.63
2018-01-28T08:18:19.207Z,8.66
2018-01-28T08:19:19.163Z,8.60
2018-01-28T08:20:19.157Z,8.54
2018-01-28T08:21:19.124Z,8.57
2018-01-28T08:22:19.100Z,8.60
2018-01-28T08:23:19.087Z,8.61
2018-01-28T08:24:19.058Z,8.52
2018-01-28T08:25:19.039Z,8.64
2018-01-28T08:26:19.026Z,8.61
2018-01-28T08:27:18.995Z,8.63
2018-01-28T08:28:18.975Z,8.61
2018-01-28T08:29:18.965Z,8.60
2018-01-28T08:30:18.938Z,8.63
2018-01-28T08:31:18.914Z,8.64
2018-01-28T08:32:18.892Z,8.61
2018-01-28T08:33:18.900Z,8.61
2018-01-28T08:34:18.855Z,8.64
2018-01-28T08:35:18.833Z,8.64
2018-01-28T08:36:18.812Z,8.63
2018-01-28T08:37:18.811Z,8.68
2018-01-28T08:38:18.768Z,8.68
2018-01-28T08:39:18.747Z,8.77
2018-01-28T08:40:18.730Z,8.72
2018-01-28T08:41:18.708Z,8.75
2018-01-28T08:42:18.684Z,8.71
2018-01-28T08:43:18.671Z,8.75
2018-01-28T08:44:18.646Z,8.72
2018-01-28T08:45:18.633Z,8.79
2018-01-28T08:46:18.613Z,8.71
2018-01-28T08:47:18.584Z,8.74
2018-01-28T08:48:18.563Z,8.86
2018-01-28T08:49:18.542Z,8.77
2018-01-28T08:50:18.599Z,8.74
2018-01-28T08:51:18.499Z,8.79
2018-01-28T08:52:18.483Z,8.81
2018-01-28T08:53:18.474Z,8.78
2018-01-28T08:54:18.440Z,8.77
2018-01-28T08:55:18.430Z,8.75
2018-01-28T08:56:18.402Z,8.74
2018-01-28T08:57:18.387Z,8.82
2018-01-28T08:58:18.357Z,8.84
2018-01-28T08:59:18.334Z,8.81
2018-01-28T09:00:18.313Z,8.81
2018-01-28T09:01:18.303Z,8.87
2018-01-28T09:02:18.274Z,8.89
2018-01-28T09:03:18.252Z,8.95
2018-01-28T09:04:18.240Z,8.93
2018-01-28T09:05:18.214Z,8.89
2018-01-28T09:06:18.195Z,8.92
2018-01-28T09:07:18.171Z,8.89
2018-01-28T09:08:18.149Z,8.86
2018-01-28T09:09:18.133Z,8.87
2018-01-28T09:10:18.118Z,8.86
2018-01-28T09:11:18.098Z,8.86
2018-01-28T09:12:18.084Z,8.87
2018-01-28T09:13:18.050Z,8.82
2018-01-28T09:14:18.037Z,8.99
2018-01-28T09:15:18.057Z,8.95
2018-01-28T09:16:18.000Z,8.87
2018-01-28T09:17:17.966Z,8.97
2018-01-28T09:18:17.999Z,8.96
2018-01-28T09:19:17.928Z,8.99
2018-01-28T09:20:17.906Z,8.99
2018-01-28T09:21:17.887Z,8.92
2018-01-28T09:22:17.876Z,9.08
2018-01-28T09:23:17.859Z,9.05
2018-01-28T09:24:17.843Z,9.08
2018-01-28T09:25:17.811Z,9.05
2018-01-28T09:26:17.789Z,8.99
2018-01-28T09:27:17.766Z,9.02
2018-01-28T09:28:17.748Z,8.96
2018-01-28T09:29:17.742Z,8.97
2018-01-28T09:30:17.710Z,8.97
2018-01-28T09:31:17.681Z,8.96
2018-01-28T09:32:17.669Z,9.02
2018-01-28T09:33:17.659Z,8.93
2018-01-28T09:34:17.635Z,9.03
2018-01-28T09:35:17.605Z,9.08
2018-01-28T09:36:17.592Z,9.08
2018-01-28T09:37:17.573Z,9.03
2018-01-28T09:38:17.548Z,9.08
2018-01-28T09:39:17.519Z,9.08
2018-01-28T09:40:17.498Z,8.96
2018-01-28T09:41:17.480Z,9.08
2018-01-28T09:42:17.469Z,9.02
2018-01-28T09:43:17.439Z,9.03
2018-01-28T09:44:17.418Z,9.02
2018-01-28T09:45:17.424Z,9.00
2018-01-28T09:46:17.383Z,8.99
2018-01-28T09:47:17.355Z,9.03
2018-01-28T09:48:17.339Z,9.00
2018-01-28T09:49:17.315Z,9.05
2018-01-28T09:50:17.295Z,9.09
2018-01-28T09:51:17.275Z,9.05
2018-01-28T09:52:17.272Z,9.03
2018-01-28T09:53:17.253Z,9.02
2018-01-28T09:54:17.213Z,9.02
2018-01-28T09:55:17.195Z,9.22
2018-01-28T09:56:17.175Z,9.22
2018-01-28T09:57:17.166Z,9.15
2018-01-28T09:58:17.143Z,9.12
2018-01-28T09:59:17.126Z,9.12
2018-01-28T10:00:17.102Z,9.12
2018-01-28T10:01:17.080Z,9.16
2018-01-28T10:02:17.053Z,9.26
2018-01-28T10:03:17.040Z,9.26
2018-01-28T10:04:17.086Z,9.30
2018-01-28T10:05:16.991Z,9.30
2018-01-28T10:06:16.970Z,9.34
2018-01-28T10:07:17.060Z,9.33
2018-01-28T10:08:16.930Z,9.30
2018-01-28T10:09:16.910Z,9.27
2018-01-28T10:10:16.947Z,9.39
2018-01-28T10:11:16.872Z,9.36
2018-01-28T10:12:16.850Z,9.30
2018-01-28T10:13:16.832Z,9.42
2018-01-28T10:14:16.810Z,9.29
2018-01-28T10:15:16.789Z,9.39
2018-01-28T10:16:16.786Z,9.40
2018-01-28T10:17:16.749Z,9.48
2018-01-28T10:18:16.740Z,9.52
2018-01-28T10:19:16.715Z,9.45
2018-01-28T10:20:16.691Z,9.40
2018-01-28T10:21:16.672Z,9.44
2018-01-28T10:22:16.654Z,9.59
2018-01-28T10:23:16.641Z,9.64
2018-01-28T10:24:16.613Z,9.63
2018-01-28T10:25:16.593Z,9.64
2018-01-28T10:26:16.571Z,9.56
2018-01-28T10:27:16.557Z,9.54
2018-01-28T10:28:16.544Z,9.56
2018-01-28T10:29:16.518Z,9.63
2018-01-28T10:30:16.500Z,9.58
2018-01-28T10:31:16.472Z,9.56
2018-01-28T10:32:16.463Z,9.63
2018-01-28T10:33:16.436Z,9.59
2018-01-28T10:34:16.416Z,9.58
2018-01-28T10:35:16.400Z,9.67
2018-01-28T10:36:16.383Z,9.73
2018-01-28T10:37:16.420Z,9.72
2018-01-28T10:38:16.358Z,9.74
2018-01-28T10:39:16.326Z,9.77
2018-01-28T10:40:16.347Z,9.73
2018-01-28T10:41:16.271Z,9.81
2018-01-28T10:42:16.256Z,9.80
2018-01-28T10:43:16.237Z,9.84
2018-01-28T10:44:16.216Z,9.90
2018-01-28T10:45:16.199Z,9.84
2018-01-28T10:46:16.172Z,9.84
2018-01-28T10:47:16.156Z,9.82
2018-01-28T10:48:16.150Z,9.82
2018-01-28T10:49:16.135Z,9.91
2018-01-28T10:50:16.100Z,9.88
2018-01-28T10:51:16.078Z,9.77
2018-01-28T10:52:16.058Z,9.87
2018-01-28T10:53:16.037Z,9.84
2018-01-28T10:54:16.025Z,9.80
2018-01-28T10:55:16.005Z,9.82
2018-01-28T10:56:15.992Z,9.84
2018-01-28T10:57:15.970Z,9.85
2018-01-28T10:58:15.939Z,9.87
2018-01-28T10:59:16.020Z,9.81
2018-01-28T11:00:15.905Z,9.88
2018-01-28T11:01:15.880Z,9.84
2018-01-28T11:02:15.866Z,9.95
2018-01-28T11:03:15.837Z,9.84
2018-01-28T11:04:15.825Z,9.88
2018-01-28T11:05:15.804Z,9.87
2018-01-28T11:06:15.782Z,9.95
2018-01-28T11:07:15.847Z,10.00
2018-01-28T11:08:15.743Z,9.99
2018-01-28T11:09:15.722Z,10.09
2018-01-28T11:10:15.711Z,10.06
2018-01-28T11:11:15.692Z,10.13
2018-01-28T11:12:15.663Z,10.18
2018-01-28T11:13:15.643Z,10.20
2018-01-28T11:14:15.621Z,10.24
2018-01-28T11:15:15.604Z,10.23
2018-01-28T11:16:15.593Z,10.33
2018-01-28T11:17:15.564Z,10.41
2018-01-28T11:18:15.549Z,10.36
2018-01-28T11:19:15.533Z,10.48
2018-01-28T11:20:15.507Z,10.45
2018-01-28T11:21:15.492Z,10.53
2018-01-28T11:22:15.472Z,10.51
2018-01-28T11:23:15.455Z,10.51
2018-01-28T11:24:15.433Z,10.59
2018-01-28T11:25:15.414Z,10.68
2018-01-28T11:26:15.403Z,10.65
2018-01-28T11:27:15.373Z,10.58
2018-01-28T11:28:15.387Z,10.61
2018-01-28T11:29:15.528Z,10.55
2018-01-28T11:30:15.315Z,10.42
2018-01-28T11:31:15.307Z,10.51
2018-01-28T11:32:15.304Z,10.43
2018-01-28T11:33:15.258Z,10.46
2018-01-28T11:34:15.297Z,10.45
2018-01-28T11:35:15.221Z,10.48
2018-01-28T11:36:15.211Z,10.51
2018-01-28T11:37:15.182Z,10.59
2018-01-28T11:38:15.165Z,10.53
2018-01-28T11:39:15.145Z,10.61
2018-01-28T11:40:15.135Z,10.55
2018-01-28T11:41:15.110Z,10.61
2018-01-28T11:42:15.090Z,10.53
2018-01-28T11:43:15.069Z,10.72
2018-01-28T11:44:15.056Z,10.80
2018-01-28T11:45:15.031Z,10.72
2018-01-28T11:46:15.010Z,10.77
2018-01-28T11:47:15.006Z,10.69
2018-01-28T11:48:15.028Z,10.72
2018-01-28T11:49:14.957Z,10.76
2018-01-28T11:50:14.944Z,10.77
2018-01-28T11:51:14.916Z,10.83
2018-01-28T11:52:14.907Z,10.84
2018-01-28T11:53:14.887Z,10.83
2018-01-28T11:54:14.877Z,10.82
2018-01-28T11:55:14.845Z,10.72
2018-01-28T11:56:14.906Z,10.80
2018-01-28T11:57:14.814Z,10.75
2018-01-28T11:58:14.788Z,10.69
2018-01-28T11:59:14.858Z,10.67
2018-01-28T12:00:14.752Z,10.65
2018-01-28T12:01:14.736Z,10.75
2018-01-28T12:02:14.717Z,10.65
2018-01-28T12:03:14.696Z,10.67
2018-01-28T12:04:14.676Z,10.72
2018-01-28T12:05:14.682Z,10.75
2018-01-28T12:06:14.638Z,10.75
2018-01-28T12:07:14.636Z,10.71
2018-01-28T12:08:14.607Z,10.71
2018-01-28T12:09:14.606Z,10.80
2018-01-28T12:10:14.636Z,10.76
2018-01-28T12:11:14.555Z,10.72
2018-01-28T12:12:14.529Z,10.82
2018-01-28T12:13:14.510Z,10.69
2018-01-28T12:14:14.500Z,10.86
2018-01-28T12:15:14.486Z,10.72
2018-01-28T12:16:14.474Z,10.72
2018-01-28T12:17:14.437Z,10.82
2018-01-28T12:18:14.492Z,10.89
2018-01-28T12:19:14.414Z,10.92
2018-01-28T12:20:14.382Z,10.95
2018-01-28T12:21:14.386Z,11.02
2018-01-28T12:22:14.354Z,11.04
2018-01-28T12:23:14.323Z,11.05
2018-01-28T12:24:14.309Z,11.05
2018-01-28T12:25:14.287Z,11.05
2018-01-28T12:26:14.268Z,11.02
2018-01-28T12:27:14.265Z,11.02
2018-01-28T12:28:14.233Z,10.95
2018-01-28T12:29:14.215Z,11.00
2018-01-28T12:30:14.196Z,11.13
2018-01-28T12:31:14.178Z,11.08
2018-01-28T12:32:14.160Z,11.08
2018-01-28T12:33:14.148Z,11.05
2018-01-28T12:34:14.125Z,11.02
2018-01-28T12:35:14.103Z,11.02
2018-01-28T12:36:14.086Z,10.95
2018-01-28T12:37:14.085Z,11.00
2018-01-28T12:38:14.054Z,11.10
2018-01-28T12:39:14.046Z,11.05
2018-01-28T12:40:14.017Z,10.97
2018-01-28T12:41:13.997Z,11.00
2018-01-28T12:42:13.977Z,11.01
2018-01-28T12:43:13.964Z,10.89
2018-01-28T12:44:13.945Z,10.95
2018-01-28T12:45:13.937Z,11.00
2018-01-28T12:46:13.914Z,11.00
2018-01-28T12:47:13.894Z,11.00
2018-01-28T12:48:13.917Z,10.98
2018-01-28T12:49:13.857Z,10.98
2018-01-28T12:50:13.833Z,11.04
2018-01-28T12:51:13.824Z,11.08
2018-01-28T12:52:13.800Z,11.07
2018-01-28T12:53:13.779Z,11.01
2018-01-28T12:54:13.766Z,11.10
2018-01-28T12:55:13.742Z,11.05
2018-01-28T12:56:13.725Z,11.05
2018-01-28T12:57:13.713Z,11.13
2018-01-28T12:58:13.688Z,11.15
2018-01-28T12:59:13.673Z,11.08
2018-01-28T13:00:13.656Z,11.19
2018-01-28T13:01:13.633Z,11.23
2018-01-28T13:02:13.625Z,11.31
2018-01-28T13:03:13.620Z,11.27
2018-01-28T13:04:13.582Z,11.27
2018-01-28T13:05:13.605Z,11.34
2018-01-28T13:06:13.553Z,11.26
2018-01-28T13:07:13.647Z,11.25
2018-01-28T13:08:13.516Z,11.25
2018-01-28T13:09:13.501Z,11.35
2018-01-28T13:10:13.490Z,11.30
2018-01-28T13:11:13.463Z,11.26
2018-01-28T13:12:13.437Z,11.26
2018-01-28T13:13:13.420Z,11.20
2018-01-28T13:14:13.401Z,11.13